sensor_id;sensor_type;location;lat;lon;timestamp;pressure;altitude;pressure_sealevel;temperature;humidity
52777;BME280;38656;54.260;20.822;2023-03-04T00:02:07;100115.31;;;13.63;56.36
52777;BME280;38656;54.260;20.822;2023-03-04T00:04:33;100126.97;;;12.21;55.57
52777;BME280;38656;54.260;20.822;2023-03-04T00:06:59;100120.63;;;13.81;52.57
52777;BME280;38656;54.260;20.822;2023-03-04T00:09:26;100123.47;;;13.34;52.72
52777;BME280;38656;54.260;20.822;2023-03-04T00:11:52;100120.00;;;13.87;51.67
52777;BME280;38656;54.260;20.822;2023-03-04T00:14:18;100120.53;;;11.56;58.88
52777;BME280;38656;54.260;20.822;2023-03-04T00:16:44;100093.47;;;13.87;55.54
52777;BME280;38656;54.260;20.822;2023-03-04T00:19:10;100097.97;;;14.65;52.02
52777;BME280;38656;54.260;20.822;2023-03-04T00:21:37;100092.81;;;13.21;53.94
52777;BME280;38656;54.260;20.822;2023-03-04T00:24:03;100085.78;;;13.30;54.46
52777;BME280;38656;54.260;20.822;2023-03-04T00:26:29;100079.59;;;13.57;53.19
52777;BME280;38656;54.260;20.822;2023-03-04T00:28:55;100096.09;;;12.87;56.44
52777;BME280;38656;54.260;20.822;2023-03-04T00:31:21;100082.81;;;12.60;56.48
52777;BME280;38656;54.260;20.822;2023-03-04T00:33:47;100073.91;;;14.41;53.58
52777;BME280;38656;54.260;20.822;2023-03-04T00:36:13;100086.75;;;12.83;56.10
52777;BME280;38656;54.260;20.822;2023-03-04T00:38:40;100071.41;;;13.05;55.89
52777;BME280;38656;54.260;20.822;2023-03-04T00:41:06;100069.44;;;13.71;53.47
52777;BME280;38656;54.260;20.822;2023-03-04T00:43:32;100055.09;;;13.27;53.03
52777;BME280;38656;54.260;20.822;2023-03-04T00:45:58;100072.66;;;12.08;56.70
52777;BME280;38656;54.260;20.822;2023-03-04T00:48:24;100068.88;;;12.10;56.95
52777;BME280;38656;54.260;20.822;2023-03-04T00:50:51;100058.06;;;13.42;55.96
52777;BME280;38656;54.260;20.822;2023-03-04T00:53:19;100056.59;;;13.12;55.86
52777;BME280;38656;54.260;20.822;2023-03-04T00:55:45;100056.38;;;12.78;58.13
52777;BME280;38656;54.260;20.822;2023-03-04T00:58:12;100049.34;;;12.86;57.85
52777;BME280;38656;54.260;20.822;2023-03-04T01:00:38;100037.56;;;13.89;54.82
52777;BME280;38656;54.260;20.822;2023-03-04T01:03:04;100029.75;;;19.28;44.20
52777;BME280;38656;54.260;20.822;2023-03-04T01:05:30;100023.97;;;18.29;44.15
52777;BME280;38656;54.260;20.822;2023-03-04T01:07:59;100025.09;;;16.89;45.19
52777;BME280;38656;54.260;20.822;2023-03-04T01:10:25;100021.28;;;18.88;43.53
52777;BME280;38656;54.260;20.822;2023-03-04T01:12:51;100009.72;;;17.45;44.62
52777;BME280;38656;54.260;20.822;2023-03-04T01:15:17;100020.97;;;19.63;41.61
52777;BME280;38656;54.260;20.822;2023-03-04T01:17:44;100023.22;;;16.97;44.60
52777;BME280;38656;54.260;20.822;2023-03-04T01:20:11;100023.09;;;16.83;44.55
52777;BME280;38656;54.260;20.822;2023-03-04T01:22:37;100002.25;;;17.79;44.92
52777;BME280;38656;54.260;20.822;2023-03-04T01:25:04;100003.16;;;17.71;44.32
52777;BME280;38656;54.260;20.822;2023-03-04T01:27:31;99985.47;;;18.08;44.07
52777;BME280;38656;54.260;20.822;2023-03-04T01:29:57;99990.13;;;18.51;43.22
52777;BME280;38656;54.260;20.822;2023-03-04T01:32:23;99987.41;;;17.76;43.66
52777;BME280;38656;54.260;20.822;2023-03-04T01:34:49;99982.06;;;17.76;44.78
52777;BME280;38656;54.260;20.822;2023-03-04T01:37:16;99981.94;;;18.22;43.56
52777;BME280;38656;54.260;20.822;2023-03-04T01:39:42;99988.97;;;15.90;46.32
52777;BME280;38656;54.260;20.822;2023-03-04T01:42:22;99979.44;;;16.52;47.59
52777;BME280;38656;54.260;20.822;2023-03-04T01:44:49;99968.59;;;17.55;44.92
52777;BME280;38656;54.260;20.822;2023-03-04T01:47:17;99977.72;;;16.20;46.36
52777;BME280;38656;54.260;20.822;2023-03-04T01:49:45;99964.44;;;17.14;45.25
52777;BME280;38656;54.260;20.822;2023-03-04T01:52:13;99961.53;;;17.24;45.56
52777;BME280;38656;54.260;20.822;2023-03-04T01:54:40;99954.75;;;16.90;46.38
52777;BME280;38656;54.260;20.822;2023-03-04T01:57:18;99956.09;;;16.15;46.80
52777;BME280;38656;54.260;20.822;2023-03-04T01:59:45;99949.69;;;17.41;44.64
52777;BME280;38656;54.260;20.822;2023-03-04T02:02:12;99945.25;;;17.86;43.68
52777;BME280;38656;54.260;20.822;2023-03-04T02:04:40;99939.34;;;17.00;44.77
52777;BME280;38656;54.260;20.822;2023-03-04T02:07:07;99942.06;;;15.65;48.30
52777;BME280;38656;54.260;20.822;2023-03-04T02:09:34;99935.75;;;15.82;48.34
52777;BME280;38656;54.260;20.822;2023-03-04T02:12:01;99933.41;;;16.27;47.10
52777;BME280;38656;54.260;20.822;2023-03-04T02:14:27;99924.78;;;16.88;46.64
52777;BME280;38656;54.260;20.822;2023-03-04T02:16:54;99925.16;;;16.45;46.45
52777;BME280;38656;54.260;20.822;2023-03-04T02:22:36;99914.91;;;16.65;47.15
52777;BME280;38656;54.260;20.822;2023-03-04T02:25:10;99910.50;;;18.68;44.42
52777;BME280;38656;54.260;20.822;2023-03-04T02:27:41;99908.41;;;17.67;45.24
52777;BME280;38656;54.260;20.822;2023-03-04T02:30:09;99920.94;;;15.80;47.14
52777;BME280;38656;54.260;20.822;2023-03-04T02:32:35;99901.69;;;17.86;46.22
52777;BME280;38656;54.260;20.822;2023-03-04T02:35:01;99905.97;;;17.42;46.63
52777;BME280;38656;54.260;20.822;2023-03-04T02:37:27;99907.53;;;16.67;46.24
52777;BME280;38656;54.260;20.822;2023-03-04T02:39:53;99902.50;;;16.72;46.39
52777;BME280;38656;54.260;20.822;2023-03-04T02:42:20;99904.44;;;16.24;46.03
52777;BME280;38656;54.260;20.822;2023-03-04T02:44:47;99903.88;;;17.14;46.14
52777;BME280;38656;54.260;20.822;2023-03-04T02:47:16;99901.34;;;18.04;46.44
52777;BME280;38656;54.260;20.822;2023-03-04T02:49:46;99904.28;;;17.94;44.52
52777;BME280;38656;54.260;20.822;2023-03-04T02:52:19;99895.50;;;17.17;45.69
52777;BME280;38656;54.260;20.822;2023-03-04T02:54:45;99894.41;;;17.65;45.11
52777;BME280;38656;54.260;20.822;2023-03-04T02:57:13;99884.28;;;18.78;42.88
52777;BME280;38656;54.260;20.822;2023-03-04T02:59:40;99883.84;;;18.01;45.70
52777;BME280;38656;54.260;20.822;2023-03-04T03:02:08;99887.84;;;18.27;44.09
52777;BME280;38656;54.260;20.822;2023-03-04T03:04:36;99888.03;;;18.26;44.40
52777;BME280;38656;54.260;20.822;2023-03-04T03:07:03;99877.50;;;18.39;43.91
52777;BME280;38656;54.260;20.822;2023-03-04T03:09:29;99872.19;;;19.04;42.84
52777;BME280;38656;54.260;20.822;2023-03-04T03:11:55;99873.38;;;19.51;41.71
52777;BME280;38656;54.260;20.822;2023-03-04T03:14:21;99878.72;;;18.21;42.97
52777;BME280;38656;54.260;20.822;2023-03-04T03:16:47;99883.53;;;17.51;42.99
52777;BME280;38656;54.260;20.822;2023-03-04T03:19:13;99872.84;;;17.51;45.05
52777;BME280;38656;54.260;20.822;2023-03-04T03:21:40;99875.97;;;17.40;44.50
52777;BME280;38656;54.260;20.822;2023-03-04T03:24:06;99874.16;;;18.52;43.81
52777;BME280;38656;54.260;20.822;2023-03-04T03:26:33;99874.84;;;19.25;41.23
52777;BME280;38656;54.260;20.822;2023-03-04T03:28:59;99869.56;;;17.49;44.54
52777;BME280;38656;54.260;20.822;2023-03-04T03:31:25;99872.19;;;19.04;43.16
52777;BME280;38656;54.260;20.822;2023-03-04T03:33:51;99866.56;;;17.44;44.28
52777;BME280;38656;54.260;20.822;2023-03-04T03:36:18;99869.38;;;18.69;42.97
52777;BME280;38656;54.260;20.822;2023-03-04T03:38:44;99860.50;;;17.50;44.65
52777;BME280;38656;54.260;20.822;2023-03-04T03:41:10;99854.44;;;19.94;41.76
52777;BME280;38656;54.260;20.822;2023-03-04T03:43:36;99853.78;;;17.84;43.79
52777;BME280;38656;54.260;20.822;2023-03-04T03:46:02;99863.66;;;17.39;44.85
52777;BME280;38656;54.260;20.822;2023-03-04T03:48:28;99845.31;;;18.90;42.91
52777;BME280;38656;54.260;20.822;2023-03-04T03:50:54;99828.09;;;19.98;42.29
52777;BME280;38656;54.260;20.822;2023-03-04T03:53:21;99842.97;;;18.22;42.83
52777;BME280;38656;54.260;20.822;2023-03-04T03:55:47;99838.22;;;20.03;40.68
52777;BME280;38656;54.260;20.822;2023-03-04T03:58:13;99850.81;;;18.24;42.69
52777;BME280;38656;54.260;20.822;2023-03-04T04:00:39;99847.16;;;18.10;43.81
52777;BME280;38656;54.260;20.822;2023-03-04T04:03:05;99849.41;;;18.86;41.96
52777;BME280;38656;54.260;20.822;2023-03-04T04:05:31;99856.34;;;17.18;43.26
52777;BME280;38656;54.260;20.822;2023-03-04T04:07:58;99858.59;;;19.97;39.95
52777;BME280;38656;54.260;20.822;2023-03-04T04:10:24;99858.59;;;17.59;42.83
52777;BME280;38656;54.260;20.822;2023-03-04T04:12:50;99854.34;;;18.68;41.20
52777;BME280;38656;54.260;20.822;2023-03-04T04:15:16;99858.66;;;19.40;40.01
52777;BME280;38656;54.260;20.822;2023-03-04T04:17:42;99856.28;;;20.36;39.31
52777;BME280;38656;54.260;20.822;2023-03-04T04:20:09;99860.44;;;18.40;41.50
52777;BME280;38656;54.260;20.822;2023-03-04T04:22:35;99854.81;;;17.83;42.83
52777;BME280;38656;54.260;20.822;2023-03-04T04:25:01;99856.63;;;18.71;40.14
52777;BME280;38656;54.260;20.822;2023-03-04T04:27:27;99860.50;;;17.80;43.10
52777;BME280;38656;54.260;20.822;2023-03-04T04:29:54;99851.38;;;17.60;42.48
52777;BME280;38656;54.260;20.822;2023-03-04T04:32:20;99847.88;;;18.19;41.79
52777;BME280;38656;54.260;20.822;2023-03-04T04:34:46;99846.84;;;18.20;41.79
52777;BME280;38656;54.260;20.822;2023-03-04T04:37:12;99845.78;;;17.99;41.68
52777;BME280;38656;54.260;20.822;2023-03-04T04:39:38;99844.13;;;18.35;41.87
52777;BME280;38656;54.260;20.822;2023-03-04T04:42:05;99847.13;;;19.12;40.47
52777;BME280;38656;54.260;20.822;2023-03-04T04:44:31;99844.75;;;19.23;39.95
52777;BME280;38656;54.260;20.822;2023-03-04T04:46:57;99847.06;;;18.40;39.36
52777;BME280;38656;54.260;20.822;2023-03-04T04:49:23;99842.50;;;18.55;40.31
52777;BME280;38656;54.260;20.822;2023-03-04T04:51:49;99853.59;;;17.86;41.27
52777;BME280;38656;54.260;20.822;2023-03-04T04:54:15;99847.28;;;17.72;41.88
52777;BME280;38656;54.260;20.822;2023-03-04T04:56:42;99855.91;;;18.04;40.43
52777;BME280;38656;54.260;20.822;2023-03-04T04:59:08;99851.16;;;18.57;40.16
52777;BME280;38656;54.260;20.822;2023-03-04T05:01:34;99861.25;;;17.44;41.59
52777;BME280;38656;54.260;20.822;2023-03-04T05:04:01;99849.66;;;17.67;41.29
52777;BME280;38656;54.260;20.822;2023-03-04T05:06:27;99850.31;;;17.54;41.73
52777;BME280;38656;54.260;20.822;2023-03-04T05:08:54;99849.72;;;17.29;41.79
52777;BME280;38656;54.260;20.822;2023-03-04T05:11:20;99849.50;;;18.78;39.38
52777;BME280;38656;54.260;20.822;2023-03-04T05:13:48;99844.16;;;19.00;39.16
52777;BME280;38656;54.260;20.822;2023-03-04T05:16:15;99840.25;;;18.01;40.21
52777;BME280;38656;54.260;20.822;2023-03-04T05:18:41;99838.78;;;19.00;38.88
52777;BME280;38656;54.260;20.822;2023-03-04T05:21:08;99838.78;;;18.35;39.42
52777;BME280;38656;54.260;20.822;2023-03-04T05:23:37;99838.00;;;18.19;39.58
52777;BME280;38656;54.260;20.822;2023-03-04T05:26:04;99831.34;;;19.52;38.07
52777;BME280;38656;54.260;20.822;2023-03-04T05:28:31;99835.47;;;18.54;38.02
52777;BME280;38656;54.260;20.822;2023-03-04T05:30:57;99840.34;;;17.78;38.57
52777;BME280;38656;54.260;20.822;2023-03-04T05:33:24;99835.75;;;18.60;37.88
52777;BME280;38656;54.260;20.822;2023-03-04T05:35:52;99830.78;;;17.54;39.51
52777;BME280;38656;54.260;20.822;2023-03-04T05:38:20;99825.78;;;17.36;37.64
52777;BME280;38656;54.260;20.822;2023-03-04T05:40:47;99834.50;;;18.99;37.24
52777;BME280;38656;54.260;20.822;2023-03-04T05:43:14;99831.81;;;18.99;37.89
52777;BME280;38656;54.260;20.822;2023-03-04T05:45:41;99831.75;;;18.12;38.11
52777;BME280;38656;54.260;20.822;2023-03-04T05:48:08;99833.66;;;19.26;36.61
52777;BME280;38656;54.260;20.822;2023-03-04T05:50:34;99839.25;;;19.32;36.43
52777;BME280;38656;54.260;20.822;2023-03-04T05:53:00;99839.63;;;20.67;34.90
52777;BME280;38656;54.260;20.822;2023-03-04T05:55:27;99842.03;;;17.94;37.47
52777;BME280;38656;54.260;20.822;2023-03-04T05:57:55;99839.56;;;18.93;34.77
52777;BME280;38656;54.260;20.822;2023-03-04T06:00:21;99848.38;;;18.87;34.22
52777;BME280;38656;54.260;20.822;2023-03-04T06:02:48;99844.50;;;18.90;34.80
52777;BME280;38656;54.260;20.822;2023-03-04T06:05:14;99853.50;;;20.09;32.14
52777;BME280;38656;54.260;20.822;2023-03-04T06:07:42;99854.63;;;19.86;32.64
52777;BME280;38656;54.260;20.822;2023-03-04T06:10:09;99849.81;;;19.40;34.43
52777;BME280;38656;54.260;20.822;2023-03-04T06:12:36;99845.22;;;19.34;33.90
52777;BME280;38656;54.260;20.822;2023-03-04T06:15:02;99839.06;;;20.10;33.05
52777;BME280;38656;54.260;20.822;2023-03-04T06:17:29;99847.53;;;19.37;34.45
52777;BME280;38656;54.260;20.822;2023-03-04T06:19:55;99840.47;;;19.01;35.54
52777;BME280;38656;54.260;20.822;2023-03-04T06:22:21;99851.03;;;18.44;37.11
52777;BME280;38656;54.260;20.822;2023-03-04T06:24:47;99844.50;;;18.68;37.08
52777;BME280;38656;54.260;20.822;2023-03-04T06:27:13;99846.41;;;18.38;37.22
52777;BME280;38656;54.260;20.822;2023-03-04T06:29:41;99840.31;;;18.08;38.11
52777;BME280;38656;54.260;20.822;2023-03-04T06:32:07;99838.91;;;18.27;36.37
52777;BME280;38656;54.260;20.822;2023-03-04T06:34:33;99844.44;;;20.10;34.79
52777;BME280;38656;54.260;20.822;2023-03-04T06:37:01;99841.38;;;19.78;34.54
52777;BME280;38656;54.260;20.822;2023-03-04T06:39:27;99854.09;;;18.63;36.27
52777;BME280;38656;54.260;20.822;2023-03-04T06:41:53;99867.84;;;18.81;35.06
52777;BME280;38656;54.260;20.822;2023-03-04T06:44:19;99862.56;;;19.38;34.51
52777;BME280;38656;54.260;20.822;2023-03-04T06:46:45;99880.78;;;18.78;33.04
52777;BME280;38656;54.260;20.822;2023-03-04T06:49:12;99877.47;;;18.02;33.14
52777;BME280;38656;54.260;20.822;2023-03-04T06:51:38;99872.81;;;18.63;32.38
52777;BME280;38656;54.260;20.822;2023-03-04T06:54:04;99865.28;;;19.16;31.31
52777;BME280;38656;54.260;20.822;2023-03-04T06:56:30;99863.75;;;18.06;31.97
52777;BME280;38656;54.260;20.822;2023-03-04T06:58:56;99872.44;;;18.87;31.83
52777;BME280;38656;54.260;20.822;2023-03-04T07:01:25;99884.16;;;19.64;30.12
52777;BME280;38656;54.260;20.822;2023-03-04T07:03:52;99878.56;;;19.59;30.83
52777;BME280;38656;54.260;20.822;2023-03-04T07:06:21;99877.84;;;19.16;30.66
52777;BME280;38656;54.260;20.822;2023-03-04T07:08:48;99891.78;;;17.42;32.97
52777;BME280;38656;54.260;20.822;2023-03-04T07:11:15;99883.31;;;19.57;31.14
52777;BME280;38656;54.260;20.822;2023-03-04T07:13:42;99880.16;;;19.82;30.33
52777;BME280;38656;54.260;20.822;2023-03-04T07:16:10;99881.16;;;19.46;31.09
52777;BME280;38656;54.260;20.822;2023-03-04T07:18:38;99887.19;;;16.12;34.32
52777;BME280;38656;54.260;20.822;2023-03-04T07:21:05;99888.13;;;17.58;32.32
52777;BME280;38656;54.260;20.822;2023-03-04T07:23:32;99881.97;;;18.53;30.81
52777;BME280;38656;54.260;20.822;2023-03-04T07:25:58;99884.72;;;19.88;29.98
52777;BME280;38656;54.260;20.822;2023-03-04T07:28:25;99885.81;;;18.66;31.09
52777;BME280;38656;54.260;20.822;2023-03-04T07:30:51;99888.31;;;18.31;30.63
52777;BME280;38656;54.260;20.822;2023-03-04T07:33:17;99892.97;;;19.87;29.61
52777;BME280;38656;54.260;20.822;2023-03-04T07:35:44;99889.66;;;19.28;29.28
52777;BME280;38656;54.260;20.822;2023-03-04T07:38:10;99897.34;;;18.30;30.43
52777;BME280;38656;54.260;20.822;2023-03-04T07:40:37;99889.75;;;20.05;29.34
52777;BME280;38656;54.260;20.822;2023-03-04T07:43:03;99902.03;;;17.53;31.47
52777;BME280;38656;54.260;20.822;2023-03-04T07:45:30;99898.00;;;17.04;32.03
52777;BME280;38656;54.260;20.822;2023-03-04T07:47:57;99902.00;;;19.79;29.42
52777;BME280;38656;54.260;20.822;2023-03-04T07:50:24;99898.44;;;19.43;29.50
52777;BME280;38656;54.260;20.822;2023-03-04T07:52:50;99902.09;;;19.36;29.30
52777;BME280;38656;54.260;20.822;2023-03-04T07:55:16;99902.00;;;18.79;29.14
52777;BME280;38656;54.260;20.822;2023-03-04T07:57:46;99906.47;;;16.14;31.65
52777;BME280;38656;54.260;20.822;2023-03-04T08:00:14;99892.25;;;17.30;29.53
52777;BME280;38656;54.260;20.822;2023-03-04T08:02:40;99898.31;;;19.02;27.88
52777;BME280;38656;54.260;20.822;2023-03-04T08:05:07;99903.16;;;17.21;28.90
52777;BME280;38656;54.260;20.822;2023-03-04T08:07:33;99898.81;;;18.32;29.18
52777;BME280;38656;54.260;20.822;2023-03-04T08:10:00;99900.41;;;18.85;28.30
52777;BME280;38656;54.260;20.822;2023-03-04T08:12:26;99907.06;;;18.52;29.64
52777;BME280;38656;54.260;20.822;2023-03-04T08:14:52;99899.56;;;19.27;28.57
52777;BME280;38656;54.260;20.822;2023-03-04T08:17:19;99887.56;;;18.80;28.84
52777;BME280;38656;54.260;20.822;2023-03-04T08:19:45;99900.56;;;18.62;29.24
52777;BME280;38656;54.260;20.822;2023-03-04T08:22:12;99901.88;;;19.09;28.75
52777;BME280;38656;54.260;20.822;2023-03-04T08:24:38;99897.22;;;18.38;29.38
52777;BME280;38656;54.260;20.822;2023-03-04T08:27:04;99898.53;;;19.57;29.25
52777;BME280;38656;54.260;20.822;2023-03-04T08:29:30;99895.75;;;19.15;29.61
52777;BME280;38656;54.260;20.822;2023-03-04T08:31:57;99902.28;;;18.48;29.08
52777;BME280;38656;54.260;20.822;2023-03-04T08:34:25;99904.09;;;18.11;28.88
52777;BME280;38656;54.260;20.822;2023-03-04T08:36:53;99897.63;;;17.60;29.36
52777;BME280;38656;54.260;20.822;2023-03-04T08:39:19;99910.28;;;17.05;29.92
52777;BME280;38656;54.260;20.822;2023-03-04T08:41:46;99909.06;;;17.31;29.40
52777;BME280;38656;54.260;20.822;2023-03-04T08:44:13;99905.63;;;17.45;29.08
52777;BME280;38656;54.260;20.822;2023-03-04T08:46:41;99902.69;;;14.86;31.77
52777;BME280;38656;54.260;20.822;2023-03-04T08:49:09;99903.88;;;16.05;31.04
52777;BME280;38656;54.260;20.822;2023-03-04T08:51:36;99918.59;;;16.87;30.10
52777;BME280;38656;54.260;20.822;2023-03-04T08:54:03;99911.38;;;17.72;29.39
52777;BME280;38656;54.260;20.822;2023-03-04T08:56:29;99914.09;;;18.75;28.45
52777;BME280;38656;54.260;20.822;2023-03-04T08:58:56;99902.09;;;17.30;29.47
52777;BME280;38656;54.260;20.822;2023-03-04T09:01:22;99915.03;;;18.46;28.96
52777;BME280;38656;54.260;20.822;2023-03-04T09:03:48;99912.78;;;17.98;28.89
52777;BME280;38656;54.260;20.822;2023-03-04T09:06:16;99909.00;;;17.01;29.00
52777;BME280;38656;54.260;20.822;2023-03-04T09:08:43;99925.56;;;15.86;30.91
52777;BME280;38656;54.260;20.822;2023-03-04T09:11:11;99926.78;;;16.23;29.98
52777;BME280;38656;54.260;20.822;2023-03-04T09:13:37;99911.03;;;17.52;29.12
52777;BME280;38656;54.260;20.822;2023-03-04T09:16:09;99912.69;;;17.00;30.07
52777;BME280;38656;54.260;20.822;2023-03-04T09:18:36;99911.19;;;17.89;29.18
52777;BME280;38656;54.260;20.822;2023-03-04T09:21:02;99916.41;;;16.28;30.42
52777;BME280;38656;54.260;20.822;2023-03-04T09:23:28;99912.38;;;16.95;29.91
52777;BME280;38656;54.260;20.822;2023-03-04T09:25:54;99919.56;;;16.32;30.34
52777;BME280;38656;54.260;20.822;2023-03-04T09:28:21;99926.34;;;16.03;30.72
52777;BME280;38656;54.260;20.822;2023-03-04T09:30:47;99918.69;;;16.39;30.36
52777;BME280;38656;54.260;20.822;2023-03-04T09:33:14;99920.16;;;16.73;30.70
52777;BME280;38656;54.260;20.822;2023-03-04T09:35:40;99922.31;;;17.01;30.51
52777;BME280;38656;54.260;20.822;2023-03-04T09:38:07;99924.00;;;17.02;29.86
52777;BME280;38656;54.260;20.822;2023-03-04T09:40:42;99908.22;;;17.15;29.17
52777;BME280;38656;54.260;20.822;2023-03-04T09:43:27;99907.69;;;18.03;28.93
52777;BME280;38656;54.260;20.822;2023-03-04T09:46:03;99895.00;;;17.37;29.89
52777;BME280;38656;54.260;20.822;2023-03-04T09:48:39;99896.97;;;15.55;30.22
52777;BME280;38656;54.260;20.822;2023-03-04T09:54:50;99899.31;;;15.66;29.07
52777;BME280;38656;54.260;20.822;2023-03-04T09:57:03;99894.78;;;15.83;29.26
52777;BME280;38656;54.260;20.822;2023-03-04T09:59:54;99874.88;;;18.09;28.02
52777;BME280;38656;54.260;20.822;2023-03-04T10:05:21;99885.28;;;17.06;29.05
52777;BME280;38656;54.260;20.822;2023-03-04T10:07:56;99877.94;;;17.08;29.00
52777;BME280;38656;54.260;20.822;2023-03-04T10:10:31;99894.09;;;15.73;30.15
52777;BME280;38656;54.260;20.822;2023-03-04T10:12:59;99880.75;;;16.60;30.24
52777;BME280;38656;54.260;20.822;2023-03-04T10:15:42;99893.78;;;16.55;29.30
52777;BME280;38656;54.260;20.822;2023-03-04T10:18:21;99892.91;;;16.32;30.25
52777;BME280;38656;54.260;20.822;2023-03-04T10:23:34;99905.47;;;17.62;29.73
52777;BME280;38656;54.260;20.822;2023-03-04T10:26:15;99891.81;;;18.16;28.93
52777;BME280;38656;54.260;20.822;2023-03-04T10:28:41;99895.69;;;15.51;29.88
52777;BME280;38656;54.260;20.822;2023-03-04T10:33:36;99879.34;;;18.38;26.46
52777;BME280;38656;54.260;20.822;2023-03-04T10:38:49;99870.09;;;20.32;24.68
52777;BME280;38656;54.260;20.822;2023-03-04T10:41:23;99883.72;;;16.42;26.50
52777;BME280;38656;54.260;20.822;2023-03-04T10:46:44;99893.94;;;16.62;27.08
52777;BME280;38656;54.260;20.822;2023-03-04T10:49:15;99870.50;;;16.49;26.80
52777;BME280;38656;54.260;20.822;2023-03-04T10:51:47;99891.41;;;15.25;27.22
52777;BME280;38656;54.260;20.822;2023-03-04T11:02:20;99899.03;;;15.20;26.00
52777;BME280;38656;54.260;20.822;2023-03-04T11:05:05;99892.25;;;16.61;25.08
52777;BME280;38656;54.260;20.822;2023-03-04T11:07:44;99902.72;;;18.00;25.26
52777;BME280;38656;54.260;20.822;2023-03-04T11:10:20;99907.66;;;15.38;26.16
52777;BME280;38656;54.260;20.822;2023-03-04T11:15:24;99921.31;;;15.11;28.66
52777;BME280;38656;54.260;20.822;2023-03-04T11:18:05;99938.50;;;15.97;30.94
52777;BME280;38656;54.260;20.822;2023-03-04T11:20:36;99942.91;;;17.15;31.01
52777;BME280;38656;54.260;20.822;2023-03-04T11:23:15;99961.19;;;15.35;33.42
52777;BME280;38656;54.260;20.822;2023-03-04T11:25:59;99963.09;;;16.16;33.07
52777;BME280;38656;54.260;20.822;2023-03-04T11:31:18;99968.56;;;16.62;31.29
52777;BME280;38656;54.260;20.822;2023-03-04T11:36:25;100004.53;;;13.29;33.95
52777;BME280;38656;54.260;20.822;2023-03-04T11:38:55;99978.81;;;15.03;31.86
52777;BME280;38656;54.260;20.822;2023-03-04T11:41:37;99962.50;;;17.99;28.90
52777;BME280;38656;54.260;20.822;2023-03-04T11:44:05;99955.97;;;16.48;30.83
52777;BME280;38656;54.260;20.822;2023-03-04T11:47:00;99967.09;;;16.12;30.67
52777;BME280;38656;54.260;20.822;2023-03-04T11:55:24;99982.75;;;14.06;31.26
52777;BME280;38656;54.260;20.822;2023-03-04T12:11:33;99982.47;;;15.68;25.64
52777;BME280;38656;54.260;20.822;2023-03-04T12:22:30;100000.41;;;15.74;26.36
52777;BME280;38656;54.260;20.822;2023-03-04T12:27:58;100015.16;;;14.86;26.03
52777;BME280;38656;54.260;20.822;2023-03-04T12:35:51;100017.94;;;14.68;26.72
52777;BME280;38656;54.260;20.822;2023-03-04T12:38:24;100030.25;;;13.65;28.83
52777;BME280;38656;54.260;20.822;2023-03-04T12:52:30;100045.38;;;17.52;30.35
52777;BME280;38656;54.260;20.822;2023-03-04T12:54:36;100043.38;;;15.88;31.09
52777;BME280;38656;54.260;20.822;2023-03-04T12:57:17;100060.50;;;16.66;30.15
52777;BME280;38656;54.260;20.822;2023-03-04T13:00:13;100067.22;;;13.84;32.55
52777;BME280;38656;54.260;20.822;2023-03-04T13:05:22;100067.28;;;16.37;27.98
52777;BME280;38656;54.260;20.822;2023-03-04T13:10:35;100078.31;;;13.61;31.47
52777;BME280;38656;54.260;20.822;2023-03-04T13:13:02;100083.91;;;14.47;30.72
52777;BME280;38656;54.260;20.822;2023-03-04T13:15:32;100105.97;;;12.48;37.90
52777;BME280;38656;54.260;20.822;2023-03-04T13:18:29;100102.41;;;12.39;40.64
52777;BME280;38656;54.260;20.822;2023-03-04T13:23:38;100097.84;;;12.21;39.40
52777;BME280;38656;54.260;20.822;2023-03-04T13:26:17;100088.41;;;13.58;38.66
52777;BME280;38656;54.260;20.822;2023-03-04T13:28:45;100089.47;;;12.64;39.60
52777;BME280;38656;54.260;20.822;2023-03-04T13:31:19;100089.75;;;15.36;34.23
52777;BME280;38656;54.260;20.822;2023-03-04T13:33:49;100092.13;;;19.87;30.26
52777;BME280;38656;54.260;20.822;2023-03-04T13:36:53;100083.72;;;18.36;29.63
52777;BME280;38656;54.260;20.822;2023-03-04T13:39:22;100076.69;;;17.59;30.70
52777;BME280;38656;54.260;20.822;2023-03-04T13:41:58;100096.75;;;17.55;30.30
52777;BME280;38656;54.260;20.822;2023-03-04T13:47:19;100119.41;;;15.07;32.02
52777;BME280;38656;54.260;20.822;2023-03-04T13:49:46;100135.28;;;14.90;32.88
52777;BME280;38656;54.260;20.822;2023-03-04T13:52:37;100128.94;;;13.86;35.55
52777;BME280;38656;54.260;20.822;2023-03-04T13:57:55;100118.31;;;13.86;33.20
52777;BME280;38656;54.260;20.822;2023-03-04T14:00:22;100115.19;;;14.09;31.93
52777;BME280;38656;54.260;20.822;2023-03-04T14:02:48;100115.09;;;12.73;31.96
52777;BME280;38656;54.260;20.822;2023-03-04T14:05:14;100112.94;;;15.01;29.99
52777;BME280;38656;54.260;20.822;2023-03-04T14:07:41;100107.84;;;14.55;29.96
52777;BME280;38656;54.260;20.822;2023-03-04T14:10:23;100120.16;;;15.25;30.03
52777;BME280;38656;54.260;20.822;2023-03-04T14:12:52;100119.63;;;16.86;28.94
52777;BME280;38656;54.260;20.822;2023-03-04T14:15:25;100129.56;;;13.80;30.76
52777;BME280;38656;54.260;20.822;2023-03-04T14:17:55;100133.47;;;14.12;31.13
52777;BME280;38656;54.260;20.822;2023-03-04T14:20:31;100125.25;;;16.10;28.25
52777;BME280;38656;54.260;20.822;2023-03-04T14:23:00;100114.00;;;16.73;28.74
52777;BME280;38656;54.260;20.822;2023-03-04T14:25:31;100123.22;;;16.45;28.43
52777;BME280;38656;54.260;20.822;2023-03-04T14:28:03;100115.53;;;15.52;29.53
52777;BME280;38656;54.260;20.822;2023-03-04T14:30:31;100134.22;;;15.01;28.55
52777;BME280;38656;54.260;20.822;2023-03-04T14:32:58;100121.25;;;14.72;28.75